createdAt,value
2018-04-30T00:00:46.922Z,54.4
2018-04-30T00:01:46.922Z,54.39
2018-04-30T00:02:46.969Z,54.37
2018-04-30T00:03:46.831Z,54.38
2018-04-30T00:04:46.971Z,54.36
2018-04-30T00:05:46.968Z,54.34
2018-04-30T00:06:46.875Z,54.37
2018-04-30T00:07:46.961Z,54.38
2018-04-30T00:08:46.925Z,54.39
2018-04-30T00:09:46.814Z,54.37
2018-04-30T00:10:47.101Z,54.38
2018-04-30T00:11:46.831Z,54.38
2018-04-30T00:12:46.942Z,54.35
2018-04-30T00:13:47.024Z,54.37
2018-04-30T00:14:46.937Z,54.36
2018-04-30T00:15:46.882Z,54.38
2018-04-30T00:16:46.966Z,54.35
2018-04-30T00:17:46.754Z,54.31
2018-04-30T00:18:47.013Z,54.32
2018-04-30T00:19:46.944Z,54.34
2018-04-30T00:20:46.818Z,54.32
2018-04-30T00:21:46.822Z,54.31
2018-04-30T00:22:46.940Z,54.37
2018-04-30T00:23:46.843Z,54.32
2018-04-30T00:24:46.930Z,54.37
2018-04-30T00:25:47.032Z,54.37
2018-04-30T00:26:47.004Z,54.36
2018-04-30T00:27:46.749Z,54.31
2018-04-30T00:28:46.815Z,54.35
2018-04-30T00:29:47.004Z,54.32
2018-04-30T00:30:47.323Z,54.32
2018-04-30T00:31:46.775Z,54.31
2018-04-30T00:32:46.864Z,54.32
2018-04-30T00:33:47.063Z,54.32
2018-04-30T00:34:46.986Z,54.31
2018-04-30T00:35:46.935Z,54.27
2018-04-30T00:36:46.983Z,54.31
2018-04-30T00:37:46.998Z,54.37
2018-04-30T00:38:47.274Z,54.31
2018-04-30T00:39:46.905Z,54.29
2018-04-30T00:40:46.728Z,54.31
2018-04-30T00:41:46.832Z,54.3
2018-04-30T00:42:46.912Z,54.33
2018-04-30T00:43:46.832Z,54.32
2018-04-30T00:44:46.932Z,54.28
2018-04-30T00:45:47.090Z,54.27
2018-04-30T00:46:46.781Z,54.3
2018-04-30T00:47:46.833Z,54.33
2018-04-30T00:48:46.861Z,54.3
2018-04-30T00:49:46.818Z,54.31
2018-04-30T00:50:47.200Z,54.31
2018-04-30T00:51:46.923Z,54.28
2018-04-30T00:52:46.906Z,54.29
2018-04-30T00:53:46.785Z,54.27
2018-04-30T00:54:46.770Z,54.25
2018-04-30T00:55:46.889Z,54.3
2018-04-30T00:56:46.909Z,54.3
2018-04-30T00:57:47.101Z,54.3
2018-04-30T00:58:46.901Z,54.28
2018-04-30T00:59:46.746Z,54.29
2018-04-30T01:00:46.934Z,54.29
2018-04-30T01:01:46.877Z,54.34
2018-04-30T01:02:47.021Z,54.33
2018-04-30T01:03:46.976Z,54.34
2018-04-30T01:04:46.933Z,54.24
2018-04-30T01:05:46.988Z,54.28
2018-04-30T01:06:46.948Z,54.32
2018-04-30T01:07:47.174Z,54.25
2018-04-30T01:08:46.884Z,54.23
2018-04-30T01:09:46.956Z,54.2
2018-04-30T01:10:46.808Z,54.21
2018-04-30T01:11:46.781Z,54.24
2018-04-30T01:12:46.976Z,54.25
2018-04-30T01:13:46.850Z,54.23
2018-04-30T01:14:46.974Z,54.2
2018-04-30T01:15:46.979Z,54.23
2018-04-30T01:16:47.042Z,54.2
2018-04-30T01:17:46.800Z,54.23
2018-04-30T01:18:46.774Z,54.21
2018-04-30T01:19:47.365Z,54.18
2018-04-30T01:20:46.951Z,54.22
2018-04-30T01:21:47.019Z,54.21
2018-04-30T01:22:46.947Z,54.25
2018-04-30T01:23:47.261Z,54.24
2018-04-30T01:24:47.026Z,54.22
2018-04-30T01:25:47.163Z,54.21
2018-04-30T01:26:47.143Z,54.23
2018-04-30T01:27:47.117Z,54.19
2018-04-30T01:28:46.818Z,54.19
2018-04-30T01:29:47.185Z,54.24
2018-04-30T01:30:47.063Z,54.24
2018-04-30T01:31:46.868Z,54.23
2018-04-30T01:32:46.960Z,54.21
2018-04-30T01:33:46.957Z,54.24
2018-04-30T01:34:46.927Z,54.25
2018-04-30T01:35:47.204Z,54.18
2018-04-30T01:36:46.885Z,54.22
2018-04-30T01:37:46.921Z,54.24
2018-04-30T01:38:46.960Z,54.23
2018-04-30T01:39:46.767Z,54.26
2018-04-30T01:40:46.948Z,54.22
2018-04-30T01:41:46.905Z,54.24
2018-04-30T01:42:46.932Z,54.2
2018-04-30T01:43:46.672Z,54.18
2018-04-30T01:44:46.992Z,54.21
2018-04-30T01:45:47.029Z,54.2
2018-04-30T01:46:46.803Z,54.13
2018-04-30T01:47:46.862Z,54.16
2018-04-30T01:48:46.843Z,54.2
2018-04-30T01:49:47.006Z,54.2
2018-04-30T01:50:46.927Z,54.22
2018-04-30T01:51:47.183Z,54.18
2018-04-30T01:52:46.785Z,54.18
2018-04-30T01:53:46.764Z,54.22
2018-04-30T01:54:46.916Z,54.19
2018-04-30T01:55:46.862Z,54.23
2018-04-30T01:56:47.000Z,54.16
2018-04-30T01:57:46.858Z,54.23
2018-04-30T01:58:46.960Z,54.15
2018-04-30T01:59:46.823Z,54.19
2018-04-30T02:00:46.944Z,54.18
2018-04-30T02:01:46.838Z,54.18
2018-04-30T02:02:46.903Z,54.17
2018-04-30T02:03:47.090Z,54.21
2018-04-30T02:04:46.781Z,54.18
2018-04-30T02:05:47.014Z,54.23
2018-04-30T02:06:46.823Z,54.19
2018-04-30T02:07:47.070Z,54.18
2018-04-30T02:08:46.826Z,54.18
2018-04-30T02:09:46.948Z,54.18
2018-04-30T02:10:46.805Z,54.16
2018-04-30T02:11:46.889Z,54.18
2018-04-30T02:12:46.866Z,54.17
2018-04-30T02:13:46.829Z,54.18
2018-04-30T02:14:46.928Z,54.14
2018-04-30T02:15:46.898Z,54.17
2018-04-30T02:16:46.943Z,54.18
2018-04-30T02:17:46.978Z,54.18
2018-04-30T02:18:46.780Z,54.21
2018-04-30T02:19:46.800Z,54.19
2018-04-30T02:20:46.834Z,54.18
2018-04-30T02:21:47.023Z,54.15
2018-04-30T02:22:46.931Z,54.17
2018-04-30T02:23:46.891Z,54.2
2018-04-30T02:24:46.792Z,54.19
2018-04-30T02:25:47.023Z,54.23
2018-04-30T02:26:47.223Z,54.2
2018-04-30T02:27:46.742Z,54.18
2018-04-30T02:28:46.869Z,54.18
2018-04-30T02:29:47.102Z,54.22
2018-04-30T02:30:46.994Z,54.16
2018-04-30T02:31:46.800Z,54.12
2018-04-30T02:32:46.907Z,54.14
2018-04-30T02:33:46.753Z,54.1
2018-04-30T02:34:46.830Z,54.14
2018-04-30T02:35:46.982Z,54.15
2018-04-30T02:36:46.715Z,54.17
2018-04-30T02:37:46.928Z,54.14
2018-04-30T02:38:46.850Z,54.15
2018-04-30T02:39:46.857Z,54.1
2018-04-30T02:40:46.914Z,54.09
2018-04-30T02:41:46.917Z,54.1
2018-04-30T02:42:46.911Z,54.11
2018-04-30T02:43:46.894Z,54.11
2018-04-30T02:44:46.899Z,54.09
2018-04-30T02:45:46.826Z,54.11
2018-04-30T02:46:46.921Z,54.1
2018-04-30T02:47:46.936Z,54.13
2018-04-30T02:48:46.875Z,54.15
2018-04-30T02:49:46.827Z,54.11
2018-04-30T02:50:46.898Z,54.08
2018-04-30T02:51:47.067Z,54.08
2018-04-30T02:52:46.715Z,54.08
2018-04-30T02:53:46.796Z,54.12
2018-04-30T02:54:47.015Z,54.11
2018-04-30T02:55:47.211Z,54.11
2018-04-30T02:56:46.854Z,54.13
2018-04-30T02:57:46.825Z,54.17
2018-04-30T02:58:46.682Z,54.16
2018-04-30T02:59:46.886Z,54.15
2018-04-30T03:00:46.855Z,54.16
2018-04-30T03:01:46.898Z,54.15
2018-04-30T03:02:46.800Z,54.17
2018-04-30T03:03:46.721Z,54.13
2018-04-30T03:04:46.997Z,54.08
2018-04-30T03:05:46.895Z,54.08
2018-04-30T03:06:46.841Z,54.08
2018-04-30T03:07:46.887Z,54.08
2018-04-30T03:08:46.792Z,54.06
2018-04-30T03:09:47.589Z,54.09
2018-04-30T03:10:47.118Z,54.07
2018-04-30T03:11:46.961Z,54.08
2018-04-30T03:12:47.060Z,54.07
2018-04-30T03:13:46.938Z,54.09
2018-04-30T03:14:46.780Z,54.05
2018-04-30T03:15:47.032Z,54.05
2018-04-30T03:16:46.853Z,54
2018-04-30T03:17:46.996Z,54.06
2018-04-30T03:18:47.089Z,54.07
2018-04-30T03:19:46.813Z,54.03
2018-04-30T03:20:46.843Z,54.09
2018-04-30T03:21:46.953Z,54
2018-04-30T03:22:46.768Z,54.02
2018-04-30T03:23:46.725Z,54.04
2018-04-30T03:24:46.846Z,54.03
2018-04-30T03:25:47.036Z,54
2018-04-30T03:26:47.059Z,54.05
2018-04-30T03:27:46.819Z,54.04
2018-04-30T03:28:46.941Z,54.03
2018-04-30T03:29:46.880Z,54.05
2018-04-30T03:30:46.979Z,54.04
2018-04-30T03:31:46.919Z,53.97
2018-04-30T03:32:46.877Z,54
2018-04-30T03:33:46.764Z,54.05
2018-04-30T03:34:47.156Z,54
2018-04-30T03:35:46.921Z,54.01
2018-04-30T03:36:46.948Z,54
2018-04-30T03:37:46.948Z,53.98
2018-04-30T03:38:46.917Z,54
2018-04-30T03:39:46.825Z,54
2018-04-30T03:40:46.812Z,54
2018-04-30T03:41:46.705Z,54.02
2018-04-30T03:42:46.712Z,53.96
2018-04-30T03:43:46.897Z,53.95
2018-04-30T03:44:46.785Z,53.97
2018-04-30T03:45:46.706Z,53.98
2018-04-30T03:46:46.638Z,53.96
2018-04-30T03:47:46.896Z,54.01
2018-04-30T03:48:46.671Z,53.98
2018-04-30T03:49:47.972Z,53.95
2018-04-30T03:50:46.818Z,53.99
2018-04-30T03:51:46.799Z,53.99
2018-04-30T03:52:47.064Z,53.95
2018-04-30T03:53:47.219Z,54.01
2018-04-30T03:54:46.911Z,54.01
2018-04-30T03:55:46.897Z,53.94
2018-04-30T03:56:46.820Z,53.97
2018-04-30T03:57:46.742Z,53.96
2018-04-30T03:58:46.855Z,53.95
2018-04-30T03:59:47.119Z,53.97
2018-04-30T04:00:46.749Z,53.97
2018-04-30T04:01:46.973Z,53.96
2018-04-30T04:02:46.890Z,54.04
2018-04-30T04:03:46.709Z,53.99
2018-04-30T04:04:46.927Z,53.97
2018-04-30T04:05:46.802Z,53.97
2018-04-30T04:06:46.853Z,53.97
2018-04-30T04:07:46.866Z,53.91
2018-04-30T04:08:46.691Z,53.97
2018-04-30T04:09:47.069Z,53.99
2018-04-30T04:10:46.808Z,53.94
2018-04-30T04:11:46.877Z,54
2018-04-30T04:12:47.751Z,53.96
2018-04-30T04:13:46.669Z,53.91
2018-04-30T04:14:46.827Z,53.97
2018-04-30T04:15:46.955Z,53.97
2018-04-30T04:16:46.973Z,53.93
2018-04-30T04:17:47.060Z,54.02
2018-04-30T04:18:46.829Z,54.03
2018-04-30T04:19:47.055Z,53.98
2018-04-30T04:20:46.941Z,54.04
2018-04-30T04:21:46.773Z,54.01
2018-04-30T04:22:46.700Z,53.99
2018-04-30T04:23:46.753Z,54.02
2018-04-30T04:24:46.987Z,54.01
2018-04-30T04:25:46.785Z,53.97
2018-04-30T04:26:46.805Z,54.01
2018-04-30T04:27:46.870Z,54.01
2018-04-30T04:28:46.635Z,53.99
2018-04-30T04:29:46.804Z,54.02
2018-04-30T04:30:46.767Z,54.04
2018-04-30T04:31:46.930Z,54.02
2018-04-30T04:32:46.910Z,54.07
2018-04-30T04:33:46.858Z,53.99
2018-04-30T04:34:46.967Z,54
2018-04-30T04:35:46.819Z,54.01
2018-04-30T04:36:46.882Z,54.01
2018-04-30T04:37:46.891Z,53.97
2018-04-30T04:38:46.695Z,54.03
2018-04-30T04:39:46.693Z,53.99
2018-04-30T04:40:46.759Z,54
2018-04-30T04:41:47.933Z,54
2018-04-30T04:42:46.942Z,54.01
2018-04-30T04:43:46.702Z,54.06
2018-04-30T04:44:46.703Z,54.06
2018-04-30T04:45:46.903Z,54.03
2018-04-30T04:46:46.687Z,54.02
2018-04-30T04:47:46.829Z,54.07
2018-04-30T04:48:46.751Z,54.03
2018-04-30T04:49:46.888Z,53.96
2018-04-30T04:50:46.993Z,54
2018-04-30T04:51:46.738Z,54.01
2018-04-30T04:52:46.907Z,53.99
2018-04-30T04:53:46.904Z,54.03
2018-04-30T04:54:46.863Z,54
2018-04-30T04:55:46.812Z,53.95
2018-04-30T04:56:46.683Z,53.97
2018-04-30T04:57:46.904Z,53.98
2018-04-30T04:58:46.796Z,53.95
2018-04-30T04:59:46.749Z,54.02
2018-04-30T05:00:46.873Z,54.04
2018-04-30T05:01:46.936Z,54.02
2018-04-30T05:02:46.791Z,54.01
2018-04-30T05:03:46.857Z,54.03
2018-04-30T05:04:46.763Z,54.04
2018-04-30T05:05:46.819Z,54.11
2018-04-30T05:06:47.099Z,54.13
2018-04-30T05:07:46.767Z,54.12
2018-04-30T05:08:46.809Z,54.1
2018-04-30T05:09:46.930Z,54.04
2018-04-30T05:10:47.372Z,54.1
2018-04-30T05:11:46.889Z,54.1
2018-04-30T05:12:46.872Z,54.14
2018-04-30T05:13:46.776Z,54.1
2018-04-30T05:14:46.903Z,54.19
2018-04-30T05:15:47.047Z,54.12
2018-04-30T05:16:46.775Z,54.13
2018-04-30T05:17:46.897Z,54.09
2018-04-30T05:18:47.123Z,54.12
2018-04-30T05:19:47.023Z,54.08
2018-04-30T05:20:47.108Z,54.11
2018-04-30T05:21:46.891Z,54.13
2018-04-30T05:22:46.801Z,54.12
2018-04-30T05:23:47.135Z,54.13
2018-04-30T05:24:46.954Z,54.15
2018-04-30T05:25:46.904Z,54.16
2018-04-30T05:26:47.101Z,54.13
2018-04-30T05:27:46.783Z,54.18
2018-04-30T05:28:47.121Z,54.17
2018-04-30T05:29:46.929Z,54.19
2018-04-30T05:30:46.850Z,54.13
2018-04-30T05:31:46.858Z,54.13
2018-04-30T05:32:46.837Z,54.09
2018-04-30T05:33:48.133Z,54.17
2018-04-30T05:34:47.001Z,54.19
2018-04-30T05:35:46.923Z,54.13
2018-04-30T05:36:46.675Z,54.13
2018-04-30T05:37:47.053Z,54.15
2018-04-30T05:38:46.767Z,54.14
2018-04-30T05:39:46.728Z,54.19
2018-04-30T05:40:46.807Z,54.13
2018-04-30T05:41:46.719Z,54.12
2018-04-30T05:42:46.597Z,54.14
2018-04-30T05:43:46.911Z,54.14
2018-04-30T05:44:46.677Z,54.15
2018-04-30T05:45:46.795Z,54.17
2018-04-30T05:46:46.954Z,54.14
2018-04-30T05:47:46.678Z,54.15
2018-04-30T05:48:46.821Z,54.13
2018-04-30T05:49:46.840Z,54.11
2018-04-30T05:50:46.951Z,54.08
2018-04-30T05:51:46.859Z,54.13
2018-04-30T05:52:46.846Z,54.09
2018-04-30T05:53:46.845Z,54.11
2018-04-30T05:54:46.888Z,54.14
2018-04-30T05:55:46.825Z,54.1
2018-04-30T05:56:46.898Z,54.07
2018-04-30T05:57:46.856Z,54.02
2018-04-30T05:58:46.749Z,53.97
2018-04-30T05:59:46.686Z,54.16
2018-04-30T06:00:46.951Z,54.28
2018-04-30T06:01:46.807Z,54.1
2018-04-30T06:02:46.910Z,54.18
2018-04-30T06:03:47.017Z,54.24
2018-04-30T06:04:46.867Z,54.06
2018-04-30T06:05:46.834Z,54.25
2018-04-30T06:06:47.291Z,54.38
2018-04-30T06:07:46.867Z,54.22
2018-04-30T06:08:46.767Z,54.27
2018-04-30T06:09:46.958Z,54.29
2018-04-30T06:10:46.855Z,54.3
2018-04-30T06:11:47.048Z,54.31
2018-04-30T06:12:46.879Z,54.17
2018-04-30T06:13:46.708Z,54.37
2018-04-30T06:14:46.761Z,54.19
2018-04-30T06:15:46.809Z,54.2
2018-04-30T06:16:47.958Z,54.22
2018-04-30T06:17:46.613Z,54.22
2018-04-30T06:18:46.635Z,54.29
2018-04-30T06:19:47.124Z,54.35
2018-04-30T06:20:46.794Z,54.38
2018-04-30T06:21:47.930Z,54.33
2018-04-30T06:22:46.784Z,54.38
2018-04-30T06:23:46.789Z,54.36
2018-04-30T06:24:46.765Z,54.35
2018-04-30T06:25:46.865Z,54.33
2018-04-30T06:26:48.299Z,54.33
2018-04-30T06:27:46.818Z,54.36
2018-04-30T06:28:46.728Z,54.36
2018-04-30T06:29:46.781Z,54.38
2018-04-30T06:30:46.850Z,54.4
2018-04-30T06:31:47.915Z,54.36
2018-04-30T06:32:46.809Z,54.33
2018-04-30T06:33:47.110Z,54.3
2018-04-30T06:34:46.724Z,54.23
2018-04-30T06:35:47.623Z,54.29
2018-04-30T06:36:46.776Z,54.28
2018-04-30T06:37:46.768Z,54.32
2018-04-30T06:38:46.921Z,54.37
2018-04-30T06:39:46.758Z,54.29
2018-04-30T06:40:47.227Z,54.28
2018-04-30T06:41:46.698Z,54.25
2018-04-30T06:42:46.622Z,54.28
2018-04-30T06:43:46.961Z,54.26
2018-04-30T06:44:46.915Z,54.25
2018-04-30T06:45:46.662Z,54.27
2018-04-30T06:46:48.481Z,54.24
2018-04-30T06:47:46.873Z,54.23
2018-04-30T06:48:46.736Z,54.22
2018-04-30T06:49:46.690Z,54.3
2018-04-30T06:50:46.692Z,54.23
2018-04-30T06:51:47.131Z,54.25
2018-04-30T06:52:46.709Z,54.26
2018-04-30T06:53:46.816Z,54.21
2018-04-30T06:54:47.139Z,54.24
2018-04-30T06:55:46.777Z,54.19
2018-04-30T06:56:46.907Z,54.22
2018-04-30T06:57:46.878Z,54.19
2018-04-30T06:58:46.712Z,54.2
2018-04-30T06:59:46.887Z,54.15
2018-04-30T07:00:46.827Z,54.19
2018-04-30T07:01:46.822Z,54.15
2018-04-30T07:02:46.673Z,54.18
2018-04-30T07:03:46.761Z,54.19
2018-04-30T07:04:47.150Z,54.07
2018-04-30T07:05:46.854Z,54.13
2018-04-30T07:06:46.739Z,54.17
2018-04-30T07:07:46.743Z,54.11
2018-04-30T07:08:46.657Z,54.14
2018-04-30T07:09:46.702Z,54.16
2018-04-30T07:10:46.764Z,54.13
2018-04-30T07:11:46.864Z,54.11
2018-04-30T07:12:46.835Z,54.15
2018-04-30T07:13:47.175Z,54.11
2018-04-30T07:14:46.838Z,54.12
2018-04-30T07:15:46.902Z,54.14
2018-04-30T07:16:46.952Z,54.11
2018-04-30T07:17:47.214Z,54.15
2018-04-30T07:18:46.700Z,54.11
2018-04-30T07:19:46.837Z,54.08
2018-04-30T07:20:46.927Z,54.05
2018-04-30T07:21:46.692Z,54.03
2018-04-30T07:22:46.938Z,54
2018-04-30T07:23:46.942Z,54.04
2018-04-30T07:24:47.185Z,54.05
2018-04-30T07:25:47.220Z,54.02
2018-04-30T07:26:46.786Z,54.02
2018-04-30T07:27:47.166Z,54.03
2018-04-30T07:28:46.740Z,54.04
2018-04-30T07:29:46.880Z,54.1
2018-04-30T07:30:46.872Z,54.13
2018-04-30T07:31:46.656Z,54
2018-04-30T07:32:47.066Z,54.06
2018-04-30T07:33:46.665Z,54.04
2018-04-30T07:34:46.852Z,53.99
2018-04-30T07:35:46.732Z,53.93
2018-04-30T07:36:46.722Z,54.04
2018-04-30T07:37:46.877Z,54.08
2018-04-30T07:38:46.682Z,54.06
2018-04-30T07:39:46.699Z,54.13
2018-04-30T07:40:46.817Z,54
2018-04-30T07:41:46.788Z,54.01
2018-04-30T07:42:46.935Z,54.01
2018-04-30T07:43:46.827Z,54.01
2018-04-30T07:44:46.783Z,53.97
2018-04-30T07:45:46.750Z,54.02
2018-04-30T07:46:46.802Z,53.97
2018-04-30T07:47:46.734Z,54.01
2018-04-30T07:48:47.401Z,53.95
2018-04-30T07:49:46.592Z,53.92
2018-04-30T07:50:46.786Z,53.95
2018-04-30T07:51:46.794Z,53.95
2018-04-30T07:52:46.779Z,53.9
2018-04-30T07:53:46.871Z,53.94
2018-04-30T07:54:46.732Z,53.98
2018-04-30T07:55:46.758Z,53.91
2018-04-30T07:56:46.706Z,53.95
2018-04-30T07:57:46.825Z,53.96
2018-04-30T07:59:09.897Z,53.92
2018-04-30T07:59:47.214Z,53.94
2018-04-30T08:00:46.801Z,53.97
2018-04-30T08:01:46.613Z,53.88
2018-04-30T08:02:46.839Z,53.94
2018-04-30T08:03:46.698Z,53.94
2018-04-30T08:04:46.749Z,53.87
2018-04-30T08:05:46.962Z,53.92
2018-04-30T08:06:47.779Z,53.91
2018-04-30T08:07:46.699Z,53.86
2018-04-30T08:08:46.764Z,53.92
2018-04-30T08:09:46.715Z,53.86
2018-04-30T08:10:46.677Z,53.86
2018-04-30T08:11:46.821Z,53.9
2018-04-30T08:12:46.621Z,53.85
2018-04-30T08:13:46.862Z,53.84
2018-04-30T08:14:47.296Z,53.94
2018-04-30T08:15:46.667Z,53.84
2018-04-30T08:16:46.806Z,53.82
2018-04-30T08:17:47.083Z,53.87
2018-04-30T08:18:46.689Z,53.87
2018-04-30T08:19:46.825Z,53.82
2018-04-30T08:20:46.809Z,53.91
2018-04-30T08:21:47.296Z,53.87
2018-04-30T08:22:46.631Z,53.87
2018-04-30T08:23:46.551Z,53.89
2018-04-30T08:24:46.748Z,53.87
2018-04-30T08:25:47.017Z,53.79
2018-04-30T08:26:47.018Z,53.91
2018-04-30T08:27:46.844Z,53.83
2018-04-30T08:28:46.809Z,53.8
2018-04-30T08:29:46.719Z,53.87
2018-04-30T08:30:46.644Z,53.88
2018-04-30T08:31:46.850Z,53.82
2018-04-30T08:32:46.639Z,53.86
2018-04-30T08:33:46.717Z,53.84
2018-04-30T08:34:46.820Z,53.82
2018-04-30T08:35:46.842Z,53.85
2018-04-30T08:36:47.353Z,53.87
2018-04-30T08:37:46.776Z,53.78
2018-04-30T08:38:46.649Z,53.87
2018-04-30T08:39:46.658Z,53.82
2018-04-30T08:40:46.788Z,53.8
2018-04-30T08:41:47.135Z,53.9
2018-04-30T08:42:46.684Z,53.84
2018-04-30T08:43:46.673Z,53.81
2018-04-30T08:44:47.131Z,53.86
2018-04-30T08:45:47.187Z,53.88
2018-04-30T08:46:46.775Z,53.81
2018-04-30T08:47:47.076Z,53.87
2018-04-30T08:48:46.865Z,53.84
2018-04-30T08:49:46.671Z,53.87
2018-04-30T08:50:46.856Z,53.84
2018-04-30T08:51:47.118Z,53.8
2018-04-30T08:52:46.699Z,53.8
2018-04-30T08:53:46.832Z,53.82
2018-04-30T08:54:47.739Z,53.82
2018-04-30T08:55:46.765Z,53.77
2018-04-30T08:56:46.782Z,53.88
2018-04-30T08:57:46.855Z,53.83
2018-04-30T08:58:46.690Z,53.8
2018-04-30T08:59:46.790Z,53.82
2018-04-30T09:00:46.870Z,53.81
2018-04-30T09:01:46.781Z,53.77
2018-04-30T09:02:46.796Z,53.81
2018-04-30T09:03:46.691Z,54.04
2018-04-30T09:04:46.645Z,54.04
2018-04-30T09:05:46.778Z,54.11
2018-04-30T09:06:46.863Z,54.15
2018-04-30T09:07:46.830Z,54.04
2018-04-30T09:08:46.969Z,54.07
2018-04-30T09:09:47.766Z,54.08
2018-04-30T09:10:46.608Z,54.17
2018-04-30T09:11:47.116Z,54.21
2018-04-30T09:12:46.646Z,54.17
2018-04-30T09:13:51.650Z,54.38
2018-04-30T09:15:52.112Z,53.64
2018-04-30T09:16:31.240Z,53.59
2018-04-30T09:18:35.976Z,53.63
2018-04-30T09:21:33.397Z,53.62
2018-04-30T09:23:30.440Z,53.67
2018-04-30T09:24:30.496Z,53.68
2018-04-30T09:25:30.515Z,53.77
2018-04-30T09:26:30.452Z,53.97
2018-04-30T09:27:30.426Z,53.74
2018-04-30T09:28:30.488Z,53.68
2018-04-30T09:29:30.431Z,53.69
2018-04-30T09:32:06.245Z,53.76
2018-04-30T09:33:00.842Z,53.61
2018-04-30T09:34:00.625Z,53.77
2018-04-30T09:35:01.276Z,53.65
2018-04-30T09:36:00.727Z,53.82
2018-04-30T09:37:00.822Z,53.71
2018-04-30T09:37:49.747Z,53.87
2018-04-30T09:38:49.618Z,53.93
2018-04-30T09:39:49.863Z,53.76
2018-04-30T09:40:49.705Z,53.96
2018-04-30T09:41:49.808Z,53.83
2018-04-30T09:42:49.643Z,53.71
2018-04-30T09:46:42.414Z,53.86
2018-04-30T09:47:42.387Z,53.68
2018-04-30T09:48:26.988Z,53.72
2018-04-30T09:49:26.856Z,53.68
2018-04-30T09:50:26.902Z,53.8
2018-04-30T09:51:26.932Z,53.86
2018-04-30T09:52:26.896Z,53.8
2018-04-30T09:53:27.025Z,54.14
2018-04-30T09:54:27.016Z,54.07
2018-04-30T09:55:27.006Z,54.7
2018-04-30T09:55:44.132Z,54.18
2018-04-30T09:56:43.596Z,54.02
2018-04-30T09:57:44.889Z,54.14
2018-04-30T09:58:43.451Z,54.2
2018-04-30T09:59:43.571Z,54.14
2018-04-30T10:00:43.685Z,54.2
2018-04-30T10:01:43.480Z,54.19
2018-04-30T10:02:43.451Z,54.22
2018-04-30T10:03:43.593Z,54.18
2018-04-30T10:04:43.401Z,54.17
2018-04-30T10:05:43.424Z,54.18
2018-04-30T10:06:43.571Z,54.2
2018-04-30T10:07:43.441Z,54.26
2018-04-30T10:08:43.507Z,54.19
2018-04-30T10:09:43.540Z,54.33
2018-04-30T10:10:43.567Z,54.32
2018-04-30T10:11:43.436Z,54.32
2018-04-30T10:12:43.530Z,54.3
2018-04-30T10:13:43.586Z,54.29
2018-04-30T10:14:43.501Z,54.29
2018-04-30T10:15:43.477Z,54.3
2018-04-30T10:16:43.523Z,54.37
2018-04-30T10:17:44.115Z,54.31
2018-04-30T10:18:43.513Z,54.32
2018-04-30T10:19:43.609Z,54.29
2018-04-30T10:20:43.397Z,54.27
2018-04-30T10:21:43.580Z,54.34
2018-04-30T10:22:43.737Z,54.32
2018-04-30T10:23:44.631Z,54.31
2018-04-30T10:24:43.499Z,54.28
2018-04-30T10:25:43.533Z,54.3
2018-04-30T10:26:43.877Z,54.22
2018-04-30T10:27:43.527Z,54.28
2018-04-30T10:28:43.491Z,54.27
2018-04-30T10:29:43.522Z,54.22
2018-04-30T10:30:43.600Z,54.25
2018-04-30T10:31:44.213Z,54.29
2018-04-30T10:32:43.741Z,54.23
2018-04-30T10:33:43.475Z,54.17
2018-04-30T10:34:43.515Z,54.19
2018-04-30T10:35:43.583Z,54.17
2018-04-30T10:36:43.512Z,54.19
2018-04-30T10:37:44.241Z,54.2
2018-04-30T10:38:43.374Z,54.29
2018-04-30T10:39:43.503Z,54.28
2018-04-30T10:40:43.500Z,54.32
2018-04-30T10:41:43.551Z,54.3
2018-04-30T10:42:43.487Z,54.25
2018-04-30T10:43:43.995Z,54.25
2018-04-30T10:44:43.416Z,54.23
2018-04-30T10:45:43.932Z,54.26
2018-04-30T10:46:43.614Z,54.31
2018-04-30T10:47:43.518Z,54.25
2018-04-30T10:48:43.664Z,54.23
2018-04-30T10:49:43.969Z,54.29
2018-04-30T10:50:43.493Z,54.32
2018-04-30T10:51:44.440Z,54.31
2018-04-30T10:52:43.456Z,54.3
2018-04-30T10:53:43.558Z,54.27
2018-04-30T10:54:43.826Z,54.23
2018-04-30T10:55:43.482Z,54.33
2018-04-30T10:56:43.621Z,54.18
2018-04-30T10:57:43.668Z,54.22
2018-04-30T10:58:43.686Z,54.23
2018-04-30T10:59:43.609Z,54.14
2018-04-30T11:00:43.361Z,54.18
2018-04-30T11:01:43.436Z,54.27
2018-04-30T11:02:44.561Z,54.16
2018-04-30T11:03:43.470Z,54.12
2018-04-30T11:04:43.564Z,54.13
2018-04-30T11:05:43.389Z,53.87
2018-04-30T11:06:43.448Z,53.93
2018-04-30T11:07:43.468Z,54.04
2018-04-30T11:08:43.424Z,53.99
2018-04-30T11:09:43.373Z,54.1
2018-04-30T11:10:43.429Z,54.18
2018-04-30T11:11:43.392Z,54.12
2018-04-30T11:12:43.545Z,54.11
2018-04-30T11:13:43.390Z,54.08
2018-04-30T11:14:43.519Z,54.04
2018-04-30T11:15:43.496Z,54.06
2018-04-30T11:16:43.566Z,54.09
2018-04-30T11:17:43.579Z,54.02
2018-04-30T11:18:45.279Z,54.03
2018-04-30T11:19:43.412Z,54.03
2018-04-30T11:20:43.570Z,54
2018-04-30T11:21:43.443Z,54
2018-04-30T11:22:44.241Z,54.01
2018-04-30T11:23:43.592Z,53.99
2018-04-30T11:24:43.698Z,53.96
2018-04-30T11:25:43.387Z,53.99
2018-04-30T11:26:43.408Z,53.91
2018-04-30T11:27:44.352Z,53.94
2018-04-30T11:28:43.678Z,53.98
2018-04-30T11:29:43.472Z,53.92
2018-04-30T11:30:43.434Z,53.92
2018-04-30T11:31:43.491Z,53.9
2018-04-30T11:32:43.524Z,53.89
2018-04-30T11:33:43.508Z,53.88
2018-04-30T11:34:43.759Z,53.92
2018-04-30T11:35:43.630Z,54
2018-04-30T11:36:43.520Z,53.97
2018-04-30T11:37:43.690Z,53.94
2018-04-30T11:38:43.441Z,53.96
2018-04-30T11:39:46.698Z,53.97
2018-04-30T11:40:43.509Z,53.93
2018-04-30T11:41:43.500Z,54.03
2018-04-30T11:42:43.555Z,53.95
2018-04-30T11:43:43.478Z,53.93
2018-04-30T11:44:43.633Z,53.96
2018-04-30T11:45:43.646Z,53.93
2018-04-30T11:46:43.609Z,53.91
2018-04-30T11:47:43.606Z,53.92
2018-04-30T11:48:46.704Z,53.94
2018-04-30T11:49:43.692Z,53.93
2018-04-30T11:50:43.559Z,53.94
2018-04-30T11:51:43.577Z,53.96
2018-04-30T11:52:43.646Z,53.93
2018-04-30T11:53:43.577Z,53.97
2018-04-30T11:54:43.795Z,53.95
2018-04-30T11:55:43.750Z,53.93
2018-04-30T11:56:43.832Z,53.96
2018-04-30T11:57:45.977Z,53.95
2018-04-30T11:58:44.644Z,54.08
2018-04-30T11:59:43.694Z,54.04
2018-04-30T12:00:44.434Z,53.95
2018-04-30T12:01:43.732Z,53.92
2018-04-30T12:02:46.101Z,53.94
2018-04-30T12:03:43.619Z,53.91
2018-04-30T12:04:43.558Z,53.95
2018-04-30T12:05:43.515Z,53.91
2018-04-30T12:06:45.468Z,53.97
2018-04-30T12:07:43.582Z,54.04
2018-04-30T12:08:44.080Z,54.05
2018-04-30T12:09:43.609Z,54.01
2018-04-30T12:10:43.743Z,54.02
2018-04-30T12:11:43.618Z,54.03
2018-04-30T12:12:43.506Z,54.09
2018-04-30T12:13:43.631Z,54.08
2018-04-30T12:14:43.630Z,54.09
2018-04-30T12:15:45.036Z,54.07
2018-04-30T12:16:43.578Z,54.06
2018-04-30T12:17:43.816Z,54.09
2018-04-30T12:18:43.557Z,54.08
2018-04-30T12:19:43.804Z,54.09
2018-04-30T12:20:44.030Z,54.09
2018-04-30T12:21:43.721Z,54.06
2018-04-30T12:22:43.552Z,54.11
2018-04-30T12:23:43.802Z,54.09
2018-04-30T12:24:44.382Z,54.11
2018-04-30T12:25:43.673Z,54.11
2018-04-30T12:26:43.594Z,54.08
2018-04-30T12:27:44.522Z,54.09
2018-04-30T12:28:43.746Z,54.05
2018-04-30T12:29:44.796Z,53.92
2018-04-30T12:30:43.589Z,54.02
2018-04-30T12:31:45.629Z,54.05
2018-04-30T12:32:43.833Z,54.15
2018-04-30T12:33:44.574Z,54.08
2018-04-30T12:34:43.875Z,54.12
2018-04-30T12:35:43.843Z,54.13
2018-04-30T12:36:43.820Z,54.11
2018-04-30T12:37:43.861Z,54.09
2018-04-30T12:38:43.851Z,54.06
2018-04-30T12:39:43.849Z,54.07
2018-04-30T12:40:43.848Z,54.07
2018-04-30T12:41:43.806Z,54.18
2018-04-30T12:42:43.883Z,54.08
2018-04-30T12:43:44.287Z,54.09
2018-04-30T12:44:43.765Z,54.05
2018-04-30T12:45:43.534Z,54.04
2018-04-30T12:46:43.653Z,54.11
2018-04-30T12:47:43.809Z,54.1
2018-04-30T12:48:43.510Z,54.07
2018-04-30T12:49:44.818Z,54.25
2018-04-30T12:50:44.552Z,54.14
2018-04-30T12:51:43.908Z,54.05
2018-04-30T12:52:43.801Z,54.08
2018-04-30T12:53:44.675Z,54.05
2018-04-30T12:54:45.623Z,54.17
2018-04-30T12:55:43.793Z,54.19
2018-04-30T12:56:43.799Z,54.14
2018-04-30T12:57:43.614Z,55.05
2018-04-30T12:58:44.689Z,54.51
2018-04-30T12:59:44.312Z,53.7
2018-04-30T13:00:47.629Z,53.82
2018-04-30T13:01:44.319Z,53.76
2018-04-30T13:02:44.363Z,53.4
2018-04-30T13:03:45.334Z,53.58
2018-04-30T13:04:44.439Z,53.71